createdAt,value
2019-06-08T00:00:55.991Z,17.85
2019-06-08T00:06:19.308Z,17.73
2019-06-08T00:11:42.627Z,17.70
2019-06-08T00:17:05.942Z,17.75
2019-06-08T00:22:29.221Z,17.63
2019-06-08T00:27:52.491Z,17.62
2019-06-08T00:33:18.493Z,17.62
2019-06-08T00:38:41.913Z,17.78
2019-06-08T00:44:05.182Z,17.85
2019-06-08T00:49:29.109Z,17.85
2019-06-08T00:54:52.787Z,17.91
2019-06-08T01:00:20.439Z,17.83
2019-06-08T01:05:44.119Z,17.80
2019-06-08T01:11:07.391Z,17.96
2019-06-08T01:16:30.806Z,17.99
2019-06-08T01:21:54.161Z,18.07
2019-06-08T01:27:17.458Z,17.99
2019-06-08T01:32:40.779Z,18.05
2019-06-08T01:38:04.392Z,17.96
2019-06-08T01:43:27.809Z,17.90
2019-06-08T01:48:51.046Z,17.93
2019-06-08T01:54:13.970Z,17.95
2019-06-08T01:59:37.250Z,18.16
2019-06-08T02:05:00.532Z,18.02
2019-06-08T02:10:26.665Z,17.92
2019-06-08T02:15:50.092Z,17.88
2019-06-08T02:21:13.490Z,17.83
2019-06-08T02:26:36.779Z,17.78
2019-06-08T02:32:00.026Z,17.86
2019-06-08T02:37:23.026Z,17.77
2019-06-08T02:42:46.497Z,17.89
2019-06-08T02:48:10.362Z,17.91
2019-06-08T02:53:36.774Z,17.88
2019-06-08T02:59:02.566Z,17.82
2019-06-08T03:04:27.921Z,17.86
2019-06-08T03:09:52.059Z,17.99
2019-06-08T03:15:19.398Z,18.01
2019-06-08T03:20:42.658Z,18.01
2019-06-08T03:26:05.953Z,18.16
2019-06-08T03:31:29.453Z,18.18
2019-06-08T03:36:56.704Z,18.11
2019-06-08T03:42:17.926Z,18.22
2019-06-08T03:47:41.901Z,18.30
2019-06-08T03:53:06.295Z,18.48
2019-06-08T03:58:33.642Z,18.54
2019-06-08T04:03:59.788Z,18.49
2019-06-08T04:09:20.436Z,18.60
2019-06-08T04:14:44.459Z,18.83
2019-06-08T04:20:11.493Z,18.67
2019-06-08T04:25:33.998Z,18.67
2019-06-08T04:30:57.434Z,18.54
2019-06-08T04:36:20.685Z,18.69
2019-06-08T04:41:45.078Z,18.62
2019-06-08T04:47:08.883Z,18.62
2019-06-08T04:52:32.154Z,18.80
2019-06-08T04:57:55.427Z,19.28
2019-06-08T05:03:18.713Z,18.73
2019-06-08T05:08:43.100Z,18.34
2019-06-08T05:14:06.548Z,18.89
2019-06-08T05:19:29.871Z,19.08
2019-06-08T05:24:53.171Z,19.21
2019-06-08T05:30:20.117Z,19.62
2019-06-08T05:35:43.498Z,19.84
2019-06-08T05:41:06.983Z,19.92
2019-06-08T05:46:30.194Z,19.92
2019-06-08T05:51:53.590Z,19.76
2019-06-08T05:57:16.895Z,20.14
2019-06-08T06:02:40.182Z,20.00
2019-06-08T06:08:16.192Z,20.06
2019-06-08T06:13:28.902Z,20.77
2019-06-08T06:18:52.334Z,20.49
2019-06-08T06:24:15.827Z,20.56
2019-06-08T06:29:38.830Z,21.14
2019-06-08T06:35:02.041Z,20.57
2019-06-08T06:40:25.928Z,20.72
2019-06-08T06:45:49.982Z,21.29
2019-06-08T06:51:25.698Z,21.42
2019-06-08T06:56:38.537Z,21.65
2019-06-08T07:02:01.805Z,21.65
2019-06-08T07:07:25.091Z,22.17
2019-06-08T07:12:48.682Z,21.83
2019-06-08T07:18:11.846Z,22.65
2019-06-08T07:23:35.129Z,23.21
2019-06-08T07:28:58.930Z,23.05
2019-06-08T07:34:21.946Z,23.57
2019-06-08T07:39:45.432Z,24.14
2019-06-08T07:45:08.995Z,23.80
2019-06-08T07:50:32.361Z,23.72
2019-06-08T07:55:56.336Z,24.14
2019-06-08T08:01:35.339Z,24.54
2019-06-08T08:06:45.405Z,24.20
2019-06-08T08:12:12.052Z,24.39
2019-06-08T08:17:34.471Z,24.66
2019-06-08T08:23:04.148Z,25.23
2019-06-08T08:28:23.040Z,25.08
2019-06-08T08:33:45.986Z,24.80
2019-06-08T08:39:10.270Z,25.17
2019-06-08T08:44:33.589Z,26.12
2019-06-08T08:49:59.152Z,25.79
2019-06-08T08:55:22.898Z,26.75
2019-06-08T09:00:48.715Z,26.67
2019-06-08T09:06:11.452Z,26.89
2019-06-08T09:11:34.701Z,26.22
2019-06-08T09:17:00.514Z,25.45
2019-06-08T09:22:22.997Z,25.52
2019-06-08T09:27:48.252Z,24.88
2019-06-08T09:33:11.733Z,24.62
2019-06-08T09:38:34.986Z,25.18
2019-06-08T09:44:00.513Z,25.70
2019-06-08T09:49:22.977Z,25.58
2019-06-08T09:54:48.140Z,27.25
2019-06-08T10:00:18.241Z,26.36
2019-06-08T10:05:39.396Z,27.34
2019-06-08T10:11:05.647Z,28.36
2019-06-08T10:16:30.574Z,27.06
2019-06-08T10:21:52.641Z,28.54
2019-06-08T10:27:18.493Z,28.01
2019-06-08T10:32:41.082Z,27.20
2019-06-08T10:38:07.957Z,26.99
2019-06-08T10:43:29.534Z,26.54
2019-06-08T10:48:52.951Z,27.36
2019-06-08T10:54:17.438Z,27.37
2019-06-08T10:59:40.999Z,26.52
2019-06-08T11:05:09.167Z,26.36
2019-06-08T11:10:29.334Z,27.50
2019-06-08T11:15:52.783Z,27.15
2019-06-08T11:21:18.468Z,26.26
2019-06-08T11:26:40.871Z,25.58
2019-06-08T11:32:04.244Z,26.21
2019-06-08T11:37:29.304Z,25.23
2019-06-08T11:42:52.686Z,26.05
2019-06-08T11:48:18.179Z,27.46
2019-06-08T11:53:40.734Z,26.17
2019-06-08T11:59:05.241Z,27.36
2019-06-08T12:04:28.856Z,26.99
2019-06-08T12:09:52.164Z,25.82
2019-06-08T12:15:18.140Z,25.51
2019-06-08T12:20:41.573Z,25.22
2019-06-08T12:26:06.005Z,25.04
2019-06-08T12:31:29.578Z,25.97
2019-06-08T12:37:15.632Z,25.68
2019-06-08T12:42:49.724Z,25.39
2019-06-08T12:48:29.069Z,27.07
2019-06-08T12:54:03.507Z,24.65
2019-06-08T12:59:28.256Z,24.69
2019-06-08T13:04:51.681Z,25.01
2019-06-08T13:10:20.073Z,25.83
2019-06-08T13:15:41.573Z,24.98
2019-06-08T13:21:20.343Z,26.19
2019-06-08T13:26:31.105Z,25.35
2019-06-08T13:31:54.704Z,25.06
2019-06-08T13:37:19.320Z,26.44
2019-06-08T13:42:43.014Z,25.51
2019-06-08T13:48:05.951Z,24.38
2019-06-08T13:53:31.881Z,25.12
2019-06-08T13:58:55.468Z,25.48
2019-06-08T14:04:20.626Z,25.43
2019-06-08T14:09:44.499Z,24.35
2019-06-08T14:15:08.712Z,23.98
2019-06-08T14:20:38.230Z,24.03
2019-06-08T14:26:00.933Z,23.91
2019-06-08T14:31:25.653Z,23.61
2019-06-08T14:36:49.680Z,23.80
2019-06-08T14:42:12.986Z,23.31
2019-06-08T14:47:37.632Z,23.03
2019-06-08T14:53:01.213Z,22.71
2019-06-08T14:58:29.127Z,22.69
2019-06-08T15:03:49.957Z,22.45
2019-06-08T15:09:13.212Z,22.23
2019-06-08T15:14:38.454Z,22.13
2019-06-08T15:20:02.001Z,21.93
2019-06-08T15:25:27.346Z,21.77
2019-06-08T15:30:51.203Z,21.53
2019-06-08T15:36:14.480Z,21.49
2019-06-08T15:41:38.198Z,21.61
2019-06-08T15:47:01.816Z,21.57
2019-06-08T15:52:24.944Z,21.65
2019-06-08T15:57:48.203Z,21.65
2019-06-08T16:03:11.627Z,21.91
2019-06-08T16:08:37.878Z,21.73
2019-06-08T16:14:00.055Z,21.93
2019-06-08T16:19:22.941Z,21.74
2019-06-08T16:24:46.230Z,21.73
2019-06-08T16:30:11.180Z,22.26
2019-06-08T16:35:35.768Z,22.33
2019-06-08T16:40:59.488Z,22.16
2019-06-08T16:46:22.764Z,22.95
2019-06-08T16:51:46.376Z,22.16
2019-06-08T16:57:11.038Z,21.87
2019-06-08T17:02:35.204Z,24.10
2019-06-08T17:07:58.686Z,23.75
2019-06-08T17:13:21.933Z,22.51
2019-06-08T17:18:45.211Z,22.46
2019-06-08T17:24:08.504Z,21.99
2019-06-08T17:29:32.818Z,21.88
2019-06-08T17:34:56.765Z,22.07
2019-06-08T17:40:20.302Z,22.01
2019-06-08T17:45:43.874Z,23.17
2019-06-08T17:51:07.169Z,23.78
2019-06-08T17:56:30.423Z,23.77
2019-06-08T18:01:53.726Z,24.04
2019-06-08T18:07:17.226Z,23.20
2019-06-08T18:12:43.502Z,23.18
2019-06-08T18:18:08.416Z,22.70
2019-06-08T18:23:32.077Z,22.16
2019-06-08T18:28:58.003Z,21.98
2019-06-08T18:34:20.699Z,21.41
2019-06-08T18:39:49.043Z,20.69
2019-06-08T18:45:13.895Z,20.34
2019-06-08T18:50:39.311Z,20.18
2019-06-08T18:56:02.147Z,19.98
2019-06-08T19:01:27.362Z,19.70
2019-06-08T19:06:50.402Z,19.49
2019-06-08T19:12:13.771Z,19.28
2019-06-08T19:17:43.927Z,18.97
2019-06-08T19:23:02.001Z,18.71
2019-06-08T19:28:35.790Z,18.39
2019-06-08T19:33:53.442Z,18.26
2019-06-08T19:39:17.650Z,18.14
2019-06-08T19:44:48.554Z,18.10
2019-06-08T19:50:07.631Z,17.88
2019-06-08T19:55:30.589Z,17.90
2019-06-08T20:00:54.910Z,17.66
2019-06-08T20:06:20.219Z,17.42
2019-06-08T20:11:48.500Z,17.02
2019-06-08T20:17:08.795Z,16.84
2019-06-08T20:22:32.077Z,17.13
2019-06-08T20:27:55.344Z,17.02
2019-06-08T20:33:18.616Z,16.92
2019-06-08T20:38:44.048Z,16.62
2019-06-08T20:44:08.475Z,16.44
2019-06-08T20:49:31.794Z,16.29
2019-06-08T20:54:55.092Z,15.67
2019-06-08T21:00:20.112Z,15.25
2019-06-08T21:05:43.631Z,15.16
2019-06-08T21:11:08.470Z,14.82
2019-06-08T21:16:32.271Z,14.65
2019-06-08T21:21:56.806Z,14.86
2019-06-08T21:27:20.502Z,14.05
2019-06-08T21:32:43.830Z,13.67
2019-06-08T21:38:20.353Z,13.33
2019-06-08T21:43:32.009Z,13.72
2019-06-08T21:48:56.877Z,13.46
2019-06-08T21:54:19.869Z,13.13
2019-06-08T21:59:43.049Z,13.03
2019-06-08T22:05:08.055Z,12.37
2019-06-08T22:10:31.076Z,12.41
2019-06-08T22:15:54.857Z,12.51
2019-06-08T22:21:18.448Z,12.42
2019-06-08T22:26:42.039Z,12.11
2019-06-08T22:32:07.425Z,11.88
2019-06-08T22:37:30.587Z,11.91
2019-06-08T22:42:54.585Z,11.96
2019-06-08T22:48:18.782Z,11.90
2019-06-08T22:53:41.757Z,11.95
2019-06-08T22:59:06.743Z,11.77
2019-06-08T23:04:30.042Z,12.20
2019-06-08T23:09:54.963Z,12.03
2019-06-08T23:15:18.774Z,11.86
2019-06-08T23:20:42.064Z,11.66
2019-06-08T23:26:10.008Z,11.78
2019-06-08T23:31:30.323Z,11.69
2019-06-08T23:36:59.141Z,11.54
2019-06-08T23:42:18.925Z,11.55
2019-06-08T23:47:42.227Z,11.73
2019-06-08T23:53:07.783Z,11.42
2019-06-08T23:58:30.461Z,11.23
